createdAt,value
2023-05-19T00:02:26.117Z,20.32
2023-05-19T00:04:52.958Z,20.33
2023-05-19T00:07:21.990Z,20.33
2023-05-19T00:09:49.882Z,20.30
2023-05-19T00:12:17.022Z,20.35
2023-05-19T00:14:44.206Z,20.36
2023-05-19T00:17:11.183Z,20.36
2023-05-19T00:19:38.165Z,20.35
2023-05-19T00:22:05.470Z,20.35
2023-05-19T00:24:32.422Z,20.09
2023-05-19T00:26:59.196Z,20.23
2023-05-19T00:29:26.116Z,20.26
2023-05-19T00:31:52.985Z,20.13
2023-05-19T00:34:19.819Z,20.17
2023-05-19T00:36:46.896Z,20.21
2023-05-19T00:39:13.671Z,20.17
2023-05-19T00:41:40.532Z,20.08
2023-05-19T00:44:07.635Z,20.13
2023-05-19T00:46:34.537Z,20.10
2023-05-19T00:49:01.313Z,20.11
2023-05-19T00:51:29.927Z,20.08
2023-05-19T00:53:56.814Z,20.04
2023-05-19T00:56:23.652Z,19.99
2023-05-19T00:58:52.128Z,19.86
2023-05-19T01:01:19.191Z,19.98
2023-05-19T01:03:47.364Z,20.04
2023-05-19T01:06:15.345Z,19.98
2023-05-19T01:08:42.192Z,19.99
2023-05-19T01:11:09.024Z,19.44
2023-05-19T01:13:36.273Z,19.78
2023-05-19T01:16:08.292Z,19.64
2023-05-19T01:18:57.213Z,19.63
2023-05-19T01:21:48.207Z,19.56
2023-05-19T01:24:51.227Z,19.55
2023-05-19T01:27:41.222Z,19.49
2023-05-19T01:30:31.135Z,19.47
2023-05-19T01:33:00.983Z,19.34
2023-05-19T01:35:28.158Z,19.42
2023-05-19T01:37:57.263Z,19.42
2023-05-19T01:40:24.821Z,19.39
2023-05-19T01:42:54.688Z,19.34
2023-05-19T01:45:23.122Z,19.25
2023-05-19T01:47:54.965Z,18.98
2023-05-19T01:50:21.919Z,19.13
2023-05-19T01:52:48.790Z,18.89
2023-05-19T01:55:15.668Z,19.03
2023-05-19T01:57:43.088Z,19.02
2023-05-19T02:00:35.249Z,19.02
2023-05-19T02:03:08.229Z,18.97
2023-05-19T02:05:53.993Z,18.93
2023-05-19T02:08:28.219Z,18.65
2023-05-19T02:11:20.095Z,18.89
2023-05-19T02:13:46.885Z,18.41
2023-05-19T02:16:13.692Z,18.68
2023-05-19T02:18:41.158Z,18.79
2023-05-19T02:21:13.243Z,18.85
2023-05-19T02:23:41.842Z,18.64
2023-05-19T02:26:08.948Z,18.83
2023-05-19T02:28:36.760Z,18.78
2023-05-19T02:31:06.568Z,18.76
2023-05-19T02:33:33.348Z,18.72
2023-05-19T02:36:00.162Z,18.69
2023-05-19T02:38:27.087Z,18.59
2023-05-19T02:40:53.949Z,18.72
2023-05-19T02:43:20.731Z,18.59
2023-05-19T02:45:47.671Z,18.54
2023-05-19T02:48:14.514Z,18.57
2023-05-19T02:50:41.384Z,18.59
2023-05-19T02:53:08.297Z,18.64
2023-05-19T02:55:35.182Z,18.64
2023-05-19T02:58:01.978Z,18.51
2023-05-19T03:00:28.885Z,18.43
2023-05-19T03:02:55.800Z,18.69
2023-05-19T03:05:22.821Z,18.11
2023-05-19T03:07:49.752Z,18.73
2023-05-19T03:10:16.520Z,18.76
2023-05-19T03:12:43.313Z,18.75
2023-05-19T03:15:13.294Z,18.75
2023-05-19T03:17:41.038Z,18.33
2023-05-19T03:20:08.460Z,18.72
2023-05-19T03:22:35.520Z,18.72
2023-05-19T03:25:02.526Z,18.74
2023-05-19T03:27:29.914Z,18.68
2023-05-19T03:29:56.841Z,18.72
2023-05-19T03:32:23.987Z,18.60
2023-05-19T03:34:50.913Z,18.52
2023-05-19T03:37:17.969Z,18.47
2023-05-19T03:39:44.751Z,18.41
2023-05-19T03:42:12.219Z,18.37
2023-05-19T03:44:39.175Z,18.29
2023-05-19T03:47:06.196Z,18.35
2023-05-19T03:49:33.051Z,18.32
2023-05-19T03:51:59.881Z,18.28
2023-05-19T03:54:27.703Z,18.33
2023-05-19T03:56:54.505Z,18.28
2023-05-19T03:59:21.418Z,18.37
2023-05-19T04:01:48.892Z,18.35
2023-05-19T04:04:15.819Z,18.31
2023-05-19T04:06:42.945Z,18.18
2023-05-19T04:09:13.764Z,18.32
2023-05-19T04:11:41.187Z,18.30
2023-05-19T04:14:08.274Z,18.06
2023-05-19T04:16:36.462Z,18.08
2023-05-19T04:19:03.346Z,18.21
2023-05-19T04:21:30.216Z,18.23
2023-05-19T04:23:59.292Z,18.20
2023-05-19T04:26:26.983Z,18.17
2023-05-19T04:28:56.781Z,18.04
2023-05-19T04:31:24.277Z,18.11
2023-05-19T04:33:53.567Z,18.12
2023-05-19T04:36:21.972Z,17.87
2023-05-19T04:38:48.991Z,18.07
2023-05-19T04:41:16.593Z,17.96
2023-05-19T04:43:44.852Z,18.05
2023-05-19T04:46:13.698Z,18.04
2023-05-19T04:48:41.444Z,17.48
2023-05-19T04:51:08.627Z,17.84
2023-05-19T04:53:35.830Z,17.94
2023-05-19T04:56:02.709Z,17.95
2023-05-19T04:58:30.342Z,17.93
2023-05-19T05:00:58.769Z,17.91
2023-05-19T05:03:26.749Z,17.89
2023-05-19T05:05:53.794Z,17.83
2023-05-19T05:08:23.533Z,17.84
2023-05-19T05:10:51.528Z,17.79
2023-05-19T05:13:21.424Z,17.79
2023-05-19T05:15:48.469Z,17.76
2023-05-19T05:18:15.878Z,17.46
2023-05-19T05:20:43.482Z,17.66
2023-05-19T05:23:14.680Z,17.51
2023-05-19T05:25:42.143Z,17.61
2023-05-19T05:28:09.191Z,17.46
2023-05-19T05:30:36.166Z,17.65
2023-05-19T05:33:03.106Z,17.58
2023-05-19T05:35:30.081Z,17.68
2023-05-19T05:37:56.920Z,17.69
2023-05-19T05:40:23.730Z,17.73
2023-05-19T05:42:50.850Z,17.76
2023-05-19T05:45:17.682Z,17.77
2023-05-19T05:47:44.760Z,17.84
2023-05-19T05:50:13.140Z,17.94
2023-05-19T05:52:39.918Z,17.85
2023-05-19T05:55:07.526Z,18.10
2023-05-19T05:57:37.511Z,18.14
2023-05-19T06:00:10.740Z,18.28
2023-05-19T06:02:37.753Z,18.37
2023-05-19T06:05:05.985Z,18.46
2023-05-19T06:07:33.003Z,18.56
2023-05-19T06:09:59.937Z,18.63
2023-05-19T06:12:27.468Z,18.63
2023-05-19T06:14:54.263Z,18.93
2023-05-19T06:17:21.131Z,19.11
2023-05-19T06:19:48.087Z,19.28
2023-05-19T06:22:14.856Z,19.50
2023-05-19T06:24:41.942Z,19.70
2023-05-19T06:27:08.730Z,19.89
2023-05-19T06:29:35.684Z,19.98
2023-05-19T06:32:02.758Z,20.30
2023-05-19T06:34:29.561Z,20.51
2023-05-19T06:36:56.356Z,20.74
2023-05-19T06:39:23.324Z,20.98
2023-05-19T06:41:50.167Z,21.20
2023-05-19T06:44:17.121Z,21.36
2023-05-19T06:46:44.537Z,21.51
2023-05-19T06:51:38.057Z,21.80
2023-05-19T06:54:04.936Z,21.69
2023-05-19T06:56:31.824Z,21.98
2023-05-19T06:58:58.627Z,22.03
2023-05-19T07:01:28.203Z,22.08
2023-05-19T07:03:55.246Z,22.17
2023-05-19T07:06:22.160Z,22.26
2023-05-19T07:08:49.428Z,22.03
2023-05-19T07:11:16.997Z,22.41
2023-05-19T07:13:43.772Z,22.59
2023-05-19T07:16:10.781Z,22.52
2023-05-19T07:18:37.716Z,22.90
2023-05-19T07:21:04.583Z,22.89
2023-05-19T07:23:31.449Z,23.21
2023-05-19T07:25:58.346Z,23.25
2023-05-19T07:28:25.166Z,23.34
2023-05-19T07:30:52.270Z,23.30
2023-05-19T07:33:19.083Z,23.24
2023-05-19T07:35:46.438Z,23.26
2023-05-19T07:38:13.414Z,23.32
2023-05-19T07:40:40.235Z,23.18
2023-05-19T07:43:07.119Z,22.91
2023-05-19T07:45:34.127Z,22.81
2023-05-19T07:48:01.065Z,22.77
2023-05-19T07:50:27.846Z,23.01
2023-05-19T07:52:54.771Z,22.89
2023-05-19T07:55:23.324Z,23.20
2023-05-19T07:57:51.072Z,23.36
2023-05-19T08:00:18.461Z,23.41
2023-05-19T08:02:45.380Z,23.49
2023-05-19T08:05:12.179Z,23.52
2023-05-19T08:07:39.040Z,23.51
2023-05-19T08:10:06.359Z,23.54
2023-05-19T08:12:33.376Z,23.63
2023-05-19T08:15:01.359Z,23.72
2023-05-19T08:17:28.682Z,23.80
2023-05-19T08:19:55.548Z,23.88
2023-05-19T08:22:22.411Z,24.16
2023-05-19T08:24:50.064Z,23.88
2023-05-19T08:27:16.892Z,24.54
2023-05-19T08:29:43.891Z,24.67
2023-05-19T08:32:13.115Z,24.59
2023-05-19T08:34:40.233Z,24.50
2023-05-19T08:37:08.142Z,24.29
2023-05-19T08:39:35.038Z,24.61
2023-05-19T08:42:02.668Z,24.44
2023-05-19T08:44:31.055Z,24.66
2023-05-19T08:46:58.282Z,24.79
2023-05-19T08:49:28.418Z,24.83
2023-05-19T08:52:16.222Z,24.82
2023-05-19T08:54:54.801Z,24.96
2023-05-19T08:57:23.272Z,25.11
2023-05-19T08:59:51.387Z,25.13
2023-05-19T09:02:18.380Z,24.75
2023-05-19T09:04:48.291Z,24.27
2023-05-19T09:07:16.159Z,23.92
2023-05-19T09:09:44.155Z,24.16
2023-05-19T09:12:11.708Z,24.39
2023-05-19T09:14:38.612Z,24.43
2023-05-19T09:17:05.721Z,24.33
2023-05-19T09:19:33.348Z,24.08
2023-05-19T09:22:03.683Z,24.17
2023-05-19T09:24:31.650Z,24.10
2023-05-19T09:27:00.119Z,24.41
2023-05-19T09:29:27.357Z,24.74
2023-05-19T09:31:56.130Z,24.78
2023-05-19T09:34:25.024Z,24.85
2023-05-19T09:36:53.814Z,24.90
2023-05-19T09:39:21.695Z,24.99
2023-05-19T09:41:52.040Z,25.11
2023-05-19T09:44:32.987Z,25.28
2023-05-19T09:47:00.310Z,25.46
2023-05-19T09:49:31.579Z,25.52
2023-05-19T09:51:59.776Z,25.73
2023-05-19T09:54:29.944Z,25.91
2023-05-19T09:57:01.008Z,26.06
2023-05-19T09:59:31.308Z,25.99
2023-05-19T10:02:00.224Z,26.11
2023-05-19T10:04:28.490Z,26.29
2023-05-19T10:06:56.336Z,26.26
2023-05-19T10:09:32.453Z,26.23
2023-05-19T10:11:59.418Z,26.39
2023-05-19T10:14:27.624Z,26.20
2023-05-19T10:16:56.450Z,25.80
2023-05-19T10:19:27.803Z,25.62
2023-05-19T10:21:55.053Z,25.39
2023-05-19T10:24:21.920Z,25.24
2023-05-19T10:26:51.699Z,25.03
2023-05-19T10:29:21.574Z,25.11
2023-05-19T10:31:48.405Z,24.99
2023-05-19T10:34:37.717Z,25.39
2023-05-19T10:37:14.182Z,25.80
2023-05-19T10:39:42.462Z,26.10
2023-05-19T10:42:41.257Z,26.57
2023-05-19T10:45:20.414Z,26.47
2023-05-19T10:47:48.201Z,26.36
2023-05-19T10:50:15.021Z,26.17
2023-05-19T10:52:42.001Z,26.43
2023-05-19T10:55:10.319Z,26.66
2023-05-19T10:57:40.604Z,27.21
2023-05-19T11:00:27.697Z,27.22
2023-05-19T11:02:57.710Z,27.24
2023-05-19T11:05:31.327Z,26.77
2023-05-19T11:08:06.092Z,26.86
2023-05-19T11:10:33.066Z,27.31
2023-05-19T11:12:59.981Z,27.31
2023-05-19T11:15:27.832Z,27.28
2023-05-19T11:17:55.037Z,27.18
2023-05-19T11:20:26.202Z,27.36
2023-05-19T11:23:04.843Z,27.51
2023-05-19T11:25:48.214Z,27.27
2023-05-19T11:28:26.050Z,27.07
2023-05-19T11:30:54.984Z,26.75
2023-05-19T11:33:21.899Z,27.07
2023-05-19T11:35:51.914Z,27.28
2023-05-19T11:38:18.971Z,27.37
2023-05-19T11:40:47.390Z,27.17
2023-05-19T11:43:14.320Z,26.87
2023-05-19T11:45:41.144Z,26.91
2023-05-19T11:48:16.214Z,27.26
2023-05-19T11:50:44.232Z,27.60
2023-05-19T11:53:14.411Z,28.11
2023-05-19T11:55:48.046Z,28.50
2023-05-19T11:58:15.548Z,28.59
2023-05-19T12:00:43.688Z,28.98
2023-05-19T12:03:10.811Z,29.35
2023-05-19T12:05:42.936Z,29.83
2023-05-19T12:08:13.897Z,30.48
2023-05-19T12:10:41.059Z,30.99
2023-05-19T12:13:11.137Z,31.55
2023-05-19T12:15:38.492Z,32.15
2023-05-19T12:18:05.815Z,32.70
2023-05-19T12:20:32.882Z,32.92
2023-05-19T12:23:00.383Z,33.01
2023-05-19T12:25:27.286Z,33.20
2023-05-19T12:27:58.374Z,32.82
2023-05-19T12:30:27.333Z,32.92
2023-05-19T12:32:54.828Z,33.06
2023-05-19T12:35:23.530Z,33.34
2023-05-19T12:37:50.886Z,33.58
2023-05-19T12:40:17.678Z,33.93
2023-05-19T12:42:45.313Z,34.05
2023-05-19T12:45:12.291Z,34.65
2023-05-19T12:47:39.116Z,34.77
2023-05-19T12:50:08.467Z,34.98
2023-05-19T12:52:48.787Z,35.27
2023-05-19T12:55:16.754Z,35.53
2023-05-19T12:57:50.736Z,34.87
2023-05-19T13:00:21.838Z,34.05
2023-05-19T13:03:08.880Z,33.10
2023-05-19T13:05:38.358Z,31.84
2023-05-19T13:08:05.833Z,30.97
2023-05-19T13:10:34.166Z,30.14
2023-05-19T13:13:01.305Z,29.58
2023-05-19T13:15:31.776Z,28.82
2023-05-19T13:17:58.689Z,28.63
2023-05-19T13:20:28.250Z,28.09
2023-05-19T13:22:55.491Z,27.53
2023-05-19T13:25:22.749Z,27.24
2023-05-19T13:27:49.830Z,26.80
2023-05-19T13:30:16.689Z,26.58
2023-05-19T13:32:43.597Z,26.31
2023-05-19T13:35:10.857Z,26.20
2023-05-19T13:37:38.066Z,26.03
2023-05-19T13:40:05.531Z,25.95
2023-05-19T13:42:34.035Z,25.76
2023-05-19T13:45:01.182Z,25.55
2023-05-19T13:47:28.187Z,25.34
2023-05-19T13:49:55.149Z,25.24
2023-05-19T13:52:21.980Z,24.95
2023-05-19T13:54:49.112Z,25.01
2023-05-19T13:57:16.472Z,25.06
2023-05-19T13:59:57.740Z,25.06
2023-05-19T14:02:28.654Z,24.85
2023-05-19T14:04:56.113Z,25.04
2023-05-19T14:07:22.895Z,24.99
2023-05-19T14:09:51.290Z,24.89
2023-05-19T14:12:18.644Z,24.83
2023-05-19T14:14:46.071Z,24.92
2023-05-19T14:17:12.967Z,24.59
2023-05-19T14:19:39.810Z,24.88
2023-05-19T14:22:06.971Z,24.62
2023-05-19T14:24:34.000Z,24.70
2023-05-19T14:27:00.897Z,24.74
2023-05-19T14:29:28.304Z,24.71
2023-05-19T14:31:55.226Z,24.79
2023-05-19T14:34:22.039Z,24.85
2023-05-19T14:36:49.037Z,24.87
2023-05-19T14:39:15.947Z,24.83
2023-05-19T14:41:42.804Z,24.79
2023-05-19T14:44:09.681Z,24.78
2023-05-19T14:46:37.070Z,24.76
2023-05-19T14:49:04.346Z,24.69
2023-05-19T14:51:31.770Z,24.64
2023-05-19T14:53:58.965Z,24.55
2023-05-19T14:56:26.334Z,24.36
2023-05-19T14:58:53.316Z,24.53
2023-05-19T15:01:22.119Z,24.48
2023-05-19T15:03:49.062Z,24.22
2023-05-19T15:06:15.886Z,24.31
2023-05-19T15:08:42.949Z,24.18
2023-05-19T15:11:09.809Z,24.33
2023-05-19T15:13:36.706Z,24.18
2023-05-19T15:16:16.359Z,24.35
2023-05-19T15:18:44.736Z,24.36
2023-05-19T15:21:11.687Z,24.36
2023-05-19T15:23:38.464Z,24.28
2023-05-19T15:26:05.905Z,24.38
2023-05-19T15:28:33.874Z,24.36
2023-05-19T15:31:00.777Z,24.33
2023-05-19T15:33:27.621Z,24.33
2023-05-19T15:35:54.730Z,24.34
2023-05-19T15:38:21.549Z,24.32
2023-05-19T15:40:48.417Z,24.37
2023-05-19T15:43:15.377Z,24.40
2023-05-19T15:45:42.168Z,24.42
2023-05-19T15:48:08.986Z,24.29
2023-05-19T15:50:36.459Z,24.43
2023-05-19T15:53:03.698Z,24.23
2023-05-19T15:55:30.611Z,24.34
2023-05-19T15:57:57.495Z,24.40
2023-05-19T16:00:24.482Z,24.40
2023-05-19T16:02:51.393Z,24.12
2023-05-19T16:05:18.659Z,24.36
2023-05-19T16:07:45.669Z,23.78
2023-05-19T16:10:12.479Z,24.01
2023-05-19T16:12:39.428Z,24.11
2023-05-19T16:15:06.781Z,23.82
2023-05-19T16:17:33.737Z,24.02
2023-05-19T16:20:00.713Z,23.47
2023-05-19T16:22:27.620Z,24.11
2023-05-19T16:24:54.418Z,24.08
2023-05-19T16:27:21.310Z,24.09
2023-05-19T16:29:48.102Z,24.08
2023-05-19T16:32:15.015Z,23.97
2023-05-19T16:34:41.864Z,24.01
2023-05-19T16:37:08.653Z,23.88
2023-05-19T16:39:38.536Z,23.99
2023-05-19T16:42:06.379Z,23.96
2023-05-19T16:44:33.167Z,23.89
2023-05-19T16:46:59.945Z,23.83
2023-05-19T16:49:26.852Z,23.77
2023-05-19T16:51:54.397Z,23.75
2023-05-19T16:54:21.722Z,23.56
2023-05-19T16:56:49.684Z,23.72
2023-05-19T16:59:17.541Z,23.63
2023-05-19T17:01:44.637Z,23.60
2023-05-19T17:04:11.959Z,23.60
2023-05-19T17:06:38.793Z,23.57
2023-05-19T17:09:07.000Z,23.36
2023-05-19T17:11:33.822Z,23.36
2023-05-19T17:14:02.060Z,23.38
2023-05-19T17:16:28.919Z,23.35
2023-05-19T17:18:56.273Z,23.38
2023-05-19T17:21:23.092Z,23.19
2023-05-19T17:23:50.622Z,23.14
2023-05-19T17:26:17.517Z,23.38
2023-05-19T17:28:44.503Z,23.37
2023-05-19T17:31:14.615Z,23.13
2023-05-19T17:33:41.615Z,23.38
2023-05-19T17:36:09.491Z,23.35
2023-05-19T17:38:40.377Z,23.28
2023-05-19T17:41:10.484Z,23.22
2023-05-19T17:43:37.990Z,23.16
2023-05-19T17:46:05.042Z,23.13
2023-05-19T17:48:31.935Z,22.96
2023-05-19T17:50:59.058Z,23.14
2023-05-19T17:53:26.394Z,22.52
2023-05-19T17:56:00.818Z,23.16
2023-05-19T17:58:28.345Z,23.18
2023-05-19T18:00:55.594Z,23.20
2023-05-19T18:03:23.056Z,23.22
2023-05-19T18:05:50.208Z,23.21
2023-05-19T18:08:17.206Z,23.03
2023-05-19T18:10:44.706Z,23.22
2023-05-19T18:13:14.129Z,23.29
2023-05-19T18:15:41.348Z,23.20
2023-05-19T18:18:10.738Z,23.26
2023-05-19T18:20:44.293Z,23.26
2023-05-19T18:23:11.556Z,22.96
2023-05-19T18:25:38.454Z,23.19
2023-05-19T18:28:05.390Z,23.17
2023-05-19T18:30:32.583Z,23.16
2023-05-19T18:33:02.225Z,23.10
2023-05-19T18:35:29.159Z,23.12
2023-05-19T18:37:57.200Z,22.99
2023-05-19T18:40:24.589Z,23.05
2023-05-19T18:42:51.386Z,23.01
2023-05-19T18:45:19.367Z,23.00
2023-05-19T18:47:46.673Z,22.98
2023-05-19T18:50:14.572Z,22.94
2023-05-19T18:52:41.433Z,22.92
2023-05-19T18:55:08.740Z,22.90
2023-05-19T18:57:35.694Z,22.61
2023-05-19T19:00:03.195Z,22.83
2023-05-19T19:02:30.109Z,22.80
2023-05-19T19:04:57.189Z,22.75
2023-05-19T19:07:24.926Z,22.64
2023-05-19T19:09:51.785Z,22.66
2023-05-19T19:12:20.364Z,22.62
2023-05-19T19:14:47.500Z,22.57
2023-05-19T19:17:14.626Z,22.53
2023-05-19T19:19:41.751Z,22.48
2023-05-19T19:22:08.615Z,22.46
2023-05-19T19:24:36.266Z,22.31
2023-05-19T19:27:03.683Z,22.38
2023-05-19T19:29:30.463Z,22.34
2023-05-19T19:31:57.625Z,22.28
2023-05-19T19:34:24.470Z,22.29
2023-05-19T19:36:51.311Z,22.26
2023-05-19T19:39:18.391Z,22.23
2023-05-19T19:41:45.204Z,22.21
2023-05-19T19:44:12.029Z,22.17
2023-05-19T19:46:38.959Z,22.15
2023-05-19T19:49:05.745Z,22.05
2023-05-19T19:51:32.600Z,22.08
2023-05-19T19:53:59.590Z,21.89
2023-05-19T19:56:27.775Z,21.85
2023-05-19T19:58:56.825Z,21.79
2023-05-19T20:01:28.048Z,21.88
2023-05-19T20:03:55.389Z,21.79
2023-05-19T20:06:22.415Z,21.69
2023-05-19T20:08:49.642Z,21.66
2023-05-19T20:11:16.806Z,21.58
2023-05-19T20:13:43.633Z,21.36
2023-05-19T20:16:10.569Z,21.43
2023-05-19T20:18:37.415Z,21.47
2023-05-19T20:21:04.256Z,21.36
2023-05-19T20:23:31.217Z,21.39
2023-05-19T20:26:11.091Z,21.27
2023-05-19T20:28:39.608Z,21.08
2023-05-19T20:31:06.527Z,21.29
2023-05-19T20:33:33.337Z,21.27
2023-05-19T20:36:00.283Z,21.23
2023-05-19T20:38:27.153Z,20.96
2023-05-19T20:40:54.641Z,21.08
2023-05-19T20:43:21.664Z,21.12
2023-05-19T20:45:48.514Z,21.10
2023-05-19T20:48:18.318Z,21.09
2023-05-19T20:50:45.253Z,21.08
2023-05-19T20:53:12.072Z,21.03
2023-05-19T20:55:39.265Z,21.05
2023-05-19T20:58:06.357Z,21.04
2023-05-19T21:00:33.868Z,21.05
2023-05-19T21:03:01.607Z,21.08
2023-05-19T21:05:28.586Z,20.93
2023-05-19T21:07:55.582Z,21.12
2023-05-19T21:10:22.440Z,21.13
2023-05-19T21:12:49.441Z,21.15
2023-05-19T21:15:16.324Z,21.15
2023-05-19T21:17:43.120Z,21.11
2023-05-19T21:20:10.478Z,21.00
2023-05-19T21:22:37.373Z,21.20
2023-05-19T21:25:04.450Z,21.20
2023-05-19T21:27:33.092Z,21.21
2023-05-19T21:30:00.290Z,21.21
2023-05-19T21:32:27.939Z,21.20
2023-05-19T21:34:54.908Z,21.22
2023-05-19T21:37:21.926Z,21.24
2023-05-19T21:39:49.079Z,21.24
2023-05-19T21:42:16.024Z,21.08
2023-05-19T21:44:42.824Z,21.19
2023-05-19T21:47:09.622Z,21.18
2023-05-19T21:49:38.368Z,20.96
2023-05-19T21:52:06.100Z,21.22
2023-05-19T21:54:33.119Z,21.20
2023-05-19T21:57:00.038Z,21.16
2023-05-19T21:59:27.127Z,21.11
2023-05-19T22:01:53.958Z,21.02
2023-05-19T22:04:21.836Z,20.92
2023-05-19T22:06:48.622Z,20.97
2023-05-19T22:09:15.476Z,20.93
2023-05-19T22:11:42.459Z,20.74
2023-05-19T22:14:09.278Z,20.86
2023-05-19T22:16:36.126Z,20.81
2023-05-19T22:19:03.163Z,20.79
2023-05-19T22:21:29.964Z,20.78
2023-05-19T22:23:56.880Z,20.70
2023-05-19T22:26:23.946Z,20.63
2023-05-19T22:28:50.831Z,20.75
2023-05-19T22:31:18.178Z,20.75
2023-05-19T22:33:45.118Z,20.75
2023-05-19T22:36:12.432Z,20.52
2023-05-19T22:38:39.224Z,20.76
2023-05-19T22:41:06.361Z,20.80
2023-05-19T22:43:33.202Z,20.77
2023-05-19T22:46:00.055Z,20.57
2023-05-19T22:48:27.018Z,20.75
2023-05-19T22:50:53.788Z,20.78
2023-05-19T22:53:20.615Z,20.77
2023-05-19T22:55:47.749Z,20.75
2023-05-19T22:58:14.898Z,20.75
2023-05-19T23:00:41.673Z,20.73
2023-05-19T23:03:08.713Z,20.74
2023-05-19T23:05:35.778Z,20.67
2023-05-19T23:08:02.898Z,20.67
2023-05-19T23:10:29.727Z,20.73
2023-05-19T23:12:57.300Z,20.75
2023-05-19T23:15:24.055Z,20.62
2023-05-19T23:17:51.141Z,20.75
2023-05-19T23:20:18.118Z,20.75
2023-05-19T23:22:44.910Z,20.76
2023-05-19T23:25:11.886Z,20.77
2023-05-19T23:27:38.685Z,20.77
2023-05-19T23:30:06.399Z,20.76
2023-05-19T23:32:33.618Z,20.76
2023-05-19T23:35:18.823Z,20.43
2023-05-19T23:37:45.847Z,20.54
2023-05-19T23:40:12.886Z,20.76
2023-05-19T23:42:39.752Z,20.72
2023-05-19T23:45:07.322Z,20.55
2023-05-19T23:47:34.254Z,20.75
2023-05-19T23:50:01.274Z,20.77
2023-05-19T23:52:28.222Z,20.78
2023-05-19T23:54:56.137Z,20.78
2023-05-19T23:57:22.922Z,20.77
2023-05-19T23:59:50.041Z,20.69
